Terminal Aerodrome Forecast
Issued by NWS

Home | Current Version | Previous Version | Text Only | Print | Product List | Glossary On
Versions: 1 2 3 4 5 6 7 8 9 10 11 12 13 14 15 16 17
000
FTUS44 KOHX 011700
TAFCKV
TAF
KCKV 011731Z 0118/0218 11007KT P6SM SCT250
     FM020000 14007KT P6SM SCT060 BKN150
     FM020800 18010KT P6SM BKN060
     FM021200 19015G28KT P6SM VCSH BKN035 BKN060=

USA.gov is the U.S. government's official web portal to all federal, state and local government web resources and services.